createdAt,value
2023-03-16T00:01:22.410Z,4.62
2023-03-16T00:03:51.630Z,4.55
2023-03-16T00:06:20.815Z,4.58
2023-03-16T00:08:50.072Z,4.60
2023-03-16T00:11:19.292Z,4.59
2023-03-16T00:13:48.494Z,4.58
2023-03-16T00:16:17.751Z,4.55
2023-03-16T00:18:49.590Z,4.56
2023-03-16T00:21:19.114Z,4.52
2023-03-16T00:23:48.356Z,4.52
2023-03-16T00:26:17.591Z,4.51
2023-03-16T00:28:46.888Z,4.58
2023-03-16T00:31:16.157Z,4.51
2023-03-16T00:33:45.803Z,4.55
2023-03-16T00:36:17.607Z,4.50
2023-03-16T00:38:48.331Z,4.48
2023-03-16T00:41:18.640Z,4.47
2023-03-16T00:43:48.978Z,4.42
2023-03-16T00:46:20.064Z,4.42
2023-03-16T00:48:49.943Z,4.45
2023-03-16T00:51:22.900Z,4.43
2023-03-16T00:53:52.328Z,4.46
2023-03-16T00:56:21.684Z,4.42
2023-03-16T00:58:50.903Z,4.41
2023-03-16T01:01:22.606Z,4.45
2023-03-16T01:03:52.116Z,4.20
2023-03-16T01:06:23.947Z,4.22
2023-03-16T01:08:53.232Z,4.24
2023-03-16T01:11:24.834Z,4.19
2023-03-16T01:13:54.878Z,4.10
2023-03-16T01:16:25.009Z,4.11
2023-03-16T01:18:55.196Z,3.98
2023-03-16T01:21:27.298Z,4.17
2023-03-16T01:23:56.702Z,4.13
2023-03-16T01:26:25.987Z,4.10
2023-03-16T01:28:55.266Z,4.14
2023-03-16T01:31:24.945Z,4.03
2023-03-16T01:33:54.273Z,4.14
2023-03-16T01:36:23.947Z,4.11
2023-03-16T01:38:55.783Z,4.04
2023-03-16T01:41:25.912Z,4.10
2023-03-16T01:43:58.660Z,4.02
2023-03-16T01:46:29.676Z,4.08
2023-03-16T01:49:05.645Z,4.05
2023-03-16T01:51:42.116Z,4.10
2023-03-16T01:54:21.873Z,4.05
2023-03-16T01:56:57.352Z,4.06
2023-03-16T01:59:30.138Z,4.05
2023-03-16T02:01:59.630Z,4.08
2023-03-16T02:04:39.102Z,4.02
2023-03-16T02:07:10.652Z,4.05
2023-03-16T02:09:46.658Z,4.04
2023-03-16T02:12:19.589Z,4.02
2023-03-16T02:14:50.292Z,4.00
2023-03-16T02:17:22.037Z,3.97
2023-03-16T02:20:00.398Z,3.97
2023-03-16T02:22:35.978Z,3.96
2023-03-16T02:25:09.017Z,3.94
2023-03-16T02:27:45.705Z,3.93
2023-03-16T02:30:19.033Z,3.92
2023-03-16T02:32:51.627Z,3.82
2023-03-16T02:35:21.478Z,3.74
2023-03-16T02:37:52.570Z,3.67
2023-03-16T02:40:28.111Z,3.69
2023-03-16T02:43:02.801Z,3.70
2023-03-16T02:45:39.181Z,3.74
2023-03-16T02:48:15.300Z,3.77
2023-03-16T02:50:49.919Z,3.75
2023-03-16T02:53:20.111Z,3.67
2023-03-16T02:55:49.576Z,3.65
2023-03-16T02:58:19.336Z,3.58
2023-03-16T03:00:51.139Z,3.69
2023-03-16T03:03:20.435Z,3.60
2023-03-16T03:05:49.853Z,3.62
2023-03-16T03:08:20.384Z,3.50
2023-03-16T03:10:49.700Z,3.33
2023-03-16T03:13:19.187Z,3.59
2023-03-16T03:15:51.046Z,3.48
2023-03-16T03:18:20.265Z,3.52
2023-03-16T03:20:49.480Z,3.54
2023-03-16T03:23:18.733Z,3.60
2023-03-16T03:25:48.786Z,3.65
2023-03-16T03:28:18.028Z,3.50
2023-03-16T03:30:47.230Z,3.55
2023-03-16T03:33:19.071Z,3.43
2023-03-16T03:35:48.292Z,3.46
2023-03-16T03:38:17.582Z,3.34
2023-03-16T03:40:46.793Z,3.38
2023-03-16T03:43:15.990Z,3.47
2023-03-16T03:45:45.205Z,3.34
2023-03-16T03:48:14.408Z,3.43
2023-03-16T03:50:46.200Z,3.40
2023-03-16T03:53:15.434Z,3.26
2023-03-16T03:55:44.674Z,3.25
2023-03-16T03:58:14.776Z,3.16
2023-03-16T04:00:44.041Z,3.24
2023-03-16T04:03:13.970Z,3.17
2023-03-16T04:05:45.961Z,3.15
2023-03-16T04:08:15.451Z,3.08
2023-03-16T04:10:44.865Z,3.11
2023-03-16T04:13:14.221Z,3.05
2023-03-16T04:15:47.321Z,3.03
2023-03-16T04:18:16.611Z,3.04
2023-03-16T04:20:48.878Z,3.03
2023-03-16T04:23:18.069Z,3.10
2023-03-16T04:25:47.513Z,3.04
2023-03-16T04:28:18.000Z,2.99
2023-03-16T04:30:47.397Z,3.00
2023-03-16T04:33:17.564Z,2.94
2023-03-16T04:35:49.383Z,2.92
2023-03-16T04:38:18.658Z,2.87
2023-03-16T04:40:47.897Z,2.92
2023-03-16T04:43:17.136Z,2.80
2023-03-16T04:45:46.776Z,2.73
2023-03-16T04:48:15.969Z,2.65
2023-03-16T04:50:45.235Z,2.71
2023-03-16T04:53:17.061Z,2.72
2023-03-16T04:55:47.370Z,2.52
2023-03-16T04:58:16.569Z,2.50
2023-03-16T05:00:45.805Z,2.19
2023-03-16T05:03:15.120Z,2.21
2023-03-16T05:05:45.683Z,2.33
2023-03-16T05:08:17.576Z,2.47
2023-03-16T05:10:48.474Z,2.57
2023-03-16T05:13:17.745Z,2.64
2023-03-16T05:15:47.035Z,2.49
2023-03-16T05:18:16.288Z,2.32
2023-03-16T05:20:45.524Z,2.32
2023-03-16T05:23:17.391Z,2.25
2023-03-16T05:25:47.257Z,2.29
2023-03-16T05:28:16.571Z,2.20
2023-03-16T05:30:46.408Z,2.25
2023-03-16T05:33:15.942Z,2.05
2023-03-16T05:35:45.761Z,2.19
2023-03-16T05:38:18.347Z,2.40
2023-03-16T05:40:53.015Z,2.42
2023-03-16T05:43:23.136Z,2.53
2023-03-16T05:45:52.865Z,2.26
2023-03-16T05:48:22.188Z,2.25
2023-03-16T05:50:53.310Z,2.22
2023-03-16T05:53:28.649Z,2.26
2023-03-16T05:55:57.941Z,2.14
2023-03-16T05:58:27.263Z,2.40
2023-03-16T06:00:57.166Z,2.46
2023-03-16T06:03:26.351Z,2.50
2023-03-16T06:05:55.571Z,2.55
2023-03-16T06:08:27.467Z,2.59
2023-03-16T06:10:56.703Z,2.40
2023-03-16T06:13:25.936Z,2.47
2023-03-16T06:15:55.211Z,2.24
2023-03-16T06:18:24.423Z,2.36
2023-03-16T06:20:53.646Z,2.41
2023-03-16T06:23:22.978Z,2.27
2023-03-16T06:25:55.880Z,2.43
2023-03-16T06:28:25.746Z,2.37
2023-03-16T06:30:56.671Z,2.24
2023-03-16T06:33:26.260Z,2.22
2023-03-16T06:35:57.880Z,2.28
2023-03-16T06:38:27.161Z,2.34
2023-03-16T06:40:58.974Z,2.14
2023-03-16T06:43:28.221Z,2.17
2023-03-16T06:45:58.855Z,2.16
2023-03-16T06:48:28.205Z,2.26
2023-03-16T06:50:57.494Z,2.39
2023-03-16T06:53:26.692Z,2.27
2023-03-16T06:55:55.922Z,2.52
2023-03-16T06:58:27.776Z,2.45
2023-03-16T07:00:57.006Z,2.40
2023-03-16T07:03:26.186Z,2.35
2023-03-16T07:05:55.366Z,2.13
2023-03-16T07:08:24.553Z,2.15
2023-03-16T07:10:54.539Z,2.02
2023-03-16T07:13:24.057Z,2.13
2023-03-16T07:15:56.334Z,2.22
2023-03-16T07:18:26.101Z,2.36
2023-03-16T07:20:55.916Z,2.14
2023-03-16T07:23:25.119Z,2.18
2023-03-16T07:25:54.579Z,2.08
2023-03-16T07:28:24.373Z,2.26
2023-03-16T07:31:03.718Z,2.32
2023-03-16T07:33:33.938Z,2.35
2023-03-16T07:36:04.355Z,2.37
2023-03-16T07:38:34.341Z,2.52
2023-03-16T07:41:04.004Z,2.54
2023-03-16T07:43:33.471Z,2.68
2023-03-16T07:46:06.444Z,2.73
2023-03-16T07:48:35.719Z,2.66
2023-03-16T07:51:04.940Z,2.74
2023-03-16T07:53:35.222Z,2.78
2023-03-16T07:56:04.446Z,2.88
2023-03-16T07:58:34.113Z,2.90
2023-03-16T08:01:05.992Z,2.97
2023-03-16T08:03:35.223Z,3.07
2023-03-16T08:06:04.652Z,3.25
2023-03-16T08:08:34.617Z,3.34
2023-03-16T08:11:03.868Z,3.47
2023-03-16T08:13:35.398Z,3.50
2023-03-16T08:16:10.593Z,3.63
2023-03-16T08:18:40.003Z,3.75
2023-03-16T08:21:09.342Z,3.76
2023-03-16T08:23:38.563Z,3.85
2023-03-16T08:26:09.692Z,3.91
2023-03-16T08:28:39.206Z,3.95
2023-03-16T08:31:12.753Z,4.00
2023-03-16T08:33:42.010Z,4.03
2023-03-16T08:36:13.452Z,4.15
2023-03-16T08:38:44.156Z,4.27
2023-03-16T08:41:16.622Z,4.35
2023-03-16T08:43:46.750Z,4.47
2023-03-16T08:46:19.107Z,4.47
2023-03-16T08:48:48.523Z,4.57
2023-03-16T08:51:17.756Z,4.58
2023-03-16T08:53:47.044Z,4.62
2023-03-16T08:56:17.294Z,4.67
2023-03-16T08:58:46.511Z,4.79
2023-03-16T09:01:20.451Z,4.87
2023-03-16T09:03:51.328Z,4.98
2023-03-16T09:06:22.208Z,5.10
2023-03-16T09:08:51.448Z,5.06
2023-03-16T09:11:23.199Z,5.14
2023-03-16T09:13:53.227Z,5.21
2023-03-16T09:16:25.885Z,5.36
2023-03-16T09:18:55.894Z,5.50
2023-03-16T09:21:25.975Z,5.58
2023-03-16T09:23:56.257Z,5.62
2023-03-16T09:26:25.672Z,5.69
2023-03-16T09:28:55.443Z,5.84
2023-03-16T09:31:27.260Z,5.91
2023-03-16T09:33:56.485Z,5.95
2023-03-16T09:36:25.745Z,6.02
2023-03-16T09:38:55.430Z,6.18
2023-03-16T09:41:44.654Z,6.33
2023-03-16T09:44:26.332Z,6.41
2023-03-16T09:47:02.019Z,6.53
2023-03-16T09:49:36.228Z,6.65
2023-03-16T09:52:15.132Z,6.77
2023-03-16T09:54:50.158Z,6.93
2023-03-16T09:57:28.674Z,6.83
2023-03-16T10:00:03.173Z,6.97
2023-03-16T10:02:58.785Z,7.00
2023-03-16T10:05:29.745Z,6.98
2023-03-16T10:08:09.635Z,7.07
2023-03-16T10:10:51.710Z,7.21
2023-03-16T10:13:32.078Z,7.17
2023-03-16T10:16:04.970Z,7.26
2023-03-16T10:18:42.017Z,7.32
2023-03-16T10:21:17.787Z,7.38
2023-03-16T10:23:48.646Z,7.50
2023-03-16T10:26:23.178Z,7.49
2023-03-16T10:28:52.908Z,7.42
2023-03-16T10:31:25.037Z,7.70
2023-03-16T10:36:42.650Z,7.75
2023-03-16T10:39:14.157Z,7.82
2023-03-16T10:41:45.925Z,7.95
2023-03-16T10:44:17.181Z,7.91
2023-03-16T10:46:49.052Z,7.79
2023-03-16T10:49:28.864Z,7.83
2023-03-16T10:52:00.278Z,7.91
2023-03-16T10:54:36.214Z,8.00
2023-03-16T10:57:16.826Z,8.12
2023-03-16T10:59:51.047Z,8.01
2023-03-16T11:02:23.629Z,8.06
2023-03-16T11:04:57.429Z,8.26
2023-03-16T11:07:27.709Z,8.19
2023-03-16T11:09:58.778Z,8.13
2023-03-16T11:12:32.168Z,8.32
2023-03-16T11:15:09.407Z,8.36
2023-03-16T11:17:47.818Z,8.36
2023-03-16T11:20:25.193Z,8.33
2023-03-16T11:22:54.761Z,8.44
2023-03-16T11:25:30.562Z,8.54
2023-03-16T11:28:12.984Z,8.53
2023-03-16T11:30:46.238Z,8.60
2023-03-16T11:33:17.447Z,8.57
2023-03-16T11:35:59.503Z,8.67
2023-03-16T11:38:36.380Z,8.56
2023-03-16T11:41:09.268Z,8.59
2023-03-16T11:43:54.126Z,8.70
2023-03-16T11:46:26.171Z,8.67
2023-03-16T11:49:27.093Z,8.78
2023-03-16T11:52:05.226Z,8.79
2023-03-16T11:54:48.117Z,8.87
2023-03-16T11:57:32.934Z,8.82
2023-03-16T12:00:16.185Z,8.82
2023-03-16T12:02:57.159Z,8.89
2023-03-16T12:05:39.873Z,8.90
2023-03-16T12:08:27.282Z,8.94
2023-03-16T12:11:02.320Z,8.90
2023-03-16T12:13:44.741Z,8.94
2023-03-16T12:16:23.078Z,8.90
2023-03-16T12:18:57.841Z,8.97
2023-03-16T12:21:34.183Z,8.95
2023-03-16T12:24:07.511Z,9.04
2023-03-16T12:26:41.572Z,8.98
2023-03-16T12:29:21.543Z,8.96
2023-03-16T12:31:58.277Z,9.04
2023-03-16T12:34:31.847Z,9.12
2023-03-16T12:37:25.388Z,9.12
2023-03-16T12:40:09.185Z,9.05
2023-03-16T12:42:49.610Z,9.00
2023-03-16T12:45:24.563Z,9.11
2023-03-16T12:48:04.182Z,9.05
2023-03-16T12:50:33.530Z,9.05
2023-03-16T12:53:03.650Z,9.19
2023-03-16T12:55:48.188Z,9.08
2023-03-16T12:58:20.679Z,9.08
2023-03-16T13:00:59.324Z,9.18
2023-03-16T13:03:31.212Z,9.22
2023-03-16T13:06:03.516Z,9.26
2023-03-16T13:08:44.430Z,9.24
2023-03-16T13:11:18.536Z,9.21
2023-03-16T13:13:53.451Z,9.22
2023-03-16T13:16:29.070Z,9.15
2023-03-16T13:18:59.159Z,9.09
2023-03-16T13:21:39.836Z,9.10
2023-03-16T13:24:25.460Z,9.03
2023-03-16T13:27:02.929Z,8.95
2023-03-16T13:29:33.988Z,8.98
2023-03-16T13:32:05.497Z,9.06
2023-03-16T13:34:39.278Z,9.07
2023-03-16T13:37:17.031Z,9.00
2023-03-16T13:39:56.043Z,8.97
2023-03-16T13:42:28.722Z,9.02
2023-03-16T13:45:00.351Z,8.98
2023-03-16T13:47:30.673Z,8.92
2023-03-16T13:50:01.991Z,8.96
2023-03-16T13:52:33.322Z,8.81
2023-03-16T13:55:05.038Z,8.83
2023-03-16T13:57:40.266Z,8.72
2023-03-16T14:00:20.303Z,8.76
2023-03-16T14:02:54.211Z,8.82
2023-03-16T14:05:27.463Z,8.80
2023-03-16T14:08:00.588Z,8.74
2023-03-16T14:10:34.289Z,8.75
2023-03-16T14:13:25.429Z,8.70
2023-03-16T14:15:56.710Z,8.70
2023-03-16T14:18:30.371Z,8.70
2023-03-16T14:20:59.673Z,8.66
2023-03-16T14:23:33.999Z,8.66
2023-03-16T14:26:05.953Z,8.71
2023-03-16T14:28:37.783Z,8.68
2023-03-16T14:31:08.879Z,8.67
2023-03-16T14:33:42.045Z,8.68
2023-03-16T14:36:16.389Z,8.74
2023-03-16T14:38:48.361Z,8.72
2023-03-16T14:41:24.531Z,8.72
2023-03-16T14:44:00.036Z,8.65
2023-03-16T14:46:33.195Z,8.60
2023-03-16T14:49:05.380Z,8.62
2023-03-16T14:51:35.286Z,8.67
2023-03-16T14:54:04.844Z,8.68
2023-03-16T14:56:36.688Z,8.74
2023-03-16T14:59:09.039Z,8.74
2023-03-16T15:01:38.829Z,8.78
2023-03-16T15:04:09.228Z,8.87
2023-03-16T15:06:39.345Z,8.84
2023-03-16T15:09:08.798Z,8.81
2023-03-16T15:11:38.455Z,8.80
2023-03-16T15:14:37.066Z,8.78
2023-03-16T15:17:06.390Z,8.78
2023-03-16T15:19:36.099Z,8.82
2023-03-16T15:22:07.079Z,8.74
2023-03-16T15:24:36.463Z,8.66
2023-03-16T15:27:06.229Z,8.66
2023-03-16T15:29:38.211Z,8.65
2023-03-16T15:32:09.283Z,8.67
2023-03-16T15:34:38.494Z,8.64
2023-03-16T15:37:07.762Z,8.56
2023-03-16T15:39:37.055Z,8.62
2023-03-16T15:42:11.837Z,8.62
2023-03-16T15:44:43.975Z,8.60
2023-03-16T15:47:13.534Z,8.59
2023-03-16T15:49:47.769Z,8.54
2023-03-16T15:52:27.628Z,8.49
2023-03-16T15:54:57.515Z,8.50
2023-03-16T15:57:30.050Z,8.43
2023-03-16T16:00:02.411Z,8.44
2023-03-16T16:02:33.690Z,8.41
2023-03-16T16:05:03.078Z,8.39
2023-03-16T16:07:32.450Z,8.40
2023-03-16T16:10:02.264Z,8.42
2023-03-16T16:12:34.350Z,8.40
2023-03-16T16:15:06.715Z,8.43
2023-03-16T16:17:50.658Z,8.49
2023-03-16T16:20:27.677Z,8.38
2023-03-16T16:22:59.842Z,8.47
2023-03-16T16:25:35.189Z,8.55
2023-03-16T16:28:04.604Z,8.40
2023-03-16T16:30:37.684Z,8.47
2023-03-16T16:33:07.360Z,8.32
2023-03-16T16:35:38.566Z,8.35
2023-03-16T16:38:07.784Z,8.37
2023-03-16T16:40:45.912Z,8.33
2023-03-16T16:43:33.334Z,8.30
2023-03-16T16:46:08.374Z,8.24
2023-03-16T16:48:41.393Z,8.28
2023-03-16T16:51:19.158Z,8.27
2023-03-16T16:53:48.598Z,8.21
2023-03-16T16:56:20.079Z,8.23
2023-03-16T16:58:49.386Z,8.24
2023-03-16T17:01:28.199Z,8.12
2023-03-16T17:03:57.580Z,8.17
2023-03-16T17:06:27.805Z,8.14
2023-03-16T17:08:57.584Z,8.21
2023-03-16T17:11:30.067Z,8.09
2023-03-16T17:14:05.162Z,8.12
2023-03-16T17:16:39.409Z,8.14
2023-03-16T17:19:18.452Z,8.17
2023-03-16T17:21:49.060Z,8.08
2023-03-16T17:24:18.608Z,8.07
2023-03-16T17:26:50.424Z,8.09
2023-03-16T17:29:23.515Z,8.05
2023-03-16T17:31:55.419Z,8.08
2023-03-16T17:34:26.589Z,8.05
2023-03-16T17:36:56.841Z,8.08
2023-03-16T17:39:28.577Z,7.98
2023-03-16T17:42:00.109Z,8.02
2023-03-16T17:44:33.823Z,7.92
2023-03-16T17:47:06.002Z,8.04
2023-03-16T17:49:35.190Z,7.99
2023-03-16T17:52:04.388Z,8.09
2023-03-16T17:54:33.615Z,8.03
2023-03-16T17:57:02.864Z,7.98
2023-03-16T17:59:32.262Z,8.01
2023-03-16T18:02:04.234Z,7.89
2023-03-16T18:04:36.014Z,7.87
2023-03-16T18:07:06.050Z,7.93
2023-03-16T18:09:35.544Z,7.89
2023-03-16T18:12:04.780Z,7.89
2023-03-16T18:14:37.540Z,7.70
2023-03-16T18:17:18.495Z,7.81
2023-03-16T18:19:50.695Z,7.75
2023-03-16T18:22:22.048Z,7.71
2023-03-16T18:24:51.933Z,7.82
2023-03-16T18:27:21.397Z,7.68
2023-03-16T18:29:50.704Z,7.63
2023-03-16T18:32:24.437Z,7.68
2023-03-16T18:34:57.284Z,7.63
2023-03-16T18:37:29.405Z,7.62
2023-03-16T18:39:58.726Z,7.67
2023-03-16T18:42:29.118Z,7.66
2023-03-16T18:44:58.514Z,7.63
2023-03-16T18:47:31.600Z,7.54
2023-03-16T18:50:05.341Z,7.59
2023-03-16T18:52:39.194Z,7.44
2023-03-16T18:55:17.389Z,7.50
2023-03-16T18:57:50.233Z,7.64
2023-03-16T19:00:22.879Z,7.60
2023-03-16T19:02:56.641Z,7.52
2023-03-16T19:05:35.745Z,7.38
2023-03-16T19:08:07.702Z,7.49
2023-03-16T19:10:41.970Z,7.40
2023-03-16T19:13:19.174Z,7.43
2023-03-16T19:15:48.421Z,7.39
2023-03-16T19:18:17.734Z,7.33
2023-03-16T19:20:52.364Z,7.36
2023-03-16T19:23:24.417Z,7.41
2023-03-16T19:25:54.832Z,7.29
2023-03-16T19:28:29.566Z,7.29
2023-03-16T19:30:59.277Z,7.42
2023-03-16T19:33:30.489Z,7.29
2023-03-16T19:36:04.205Z,7.25
2023-03-16T19:38:33.411Z,7.21
2023-03-16T19:41:06.063Z,7.15
2023-03-16T19:43:35.587Z,7.11
2023-03-16T19:46:04.871Z,7.19
2023-03-16T19:48:36.496Z,7.14
2023-03-16T19:51:08.494Z,7.09
2023-03-16T19:53:37.702Z,7.13
2023-03-16T19:56:08.624Z,7.06
2023-03-16T19:58:41.598Z,7.00
2023-03-16T20:01:17.503Z,7.03
2023-03-16T20:03:48.523Z,7.01
2023-03-16T20:06:23.375Z,6.94
2023-03-16T20:08:54.050Z,6.92
2023-03-16T20:11:30.176Z,6.87
2023-03-16T20:14:00.397Z,6.91
2023-03-16T20:16:32.754Z,6.95
2023-03-16T20:19:05.221Z,6.93
2023-03-16T20:21:37.027Z,6.99
2023-03-16T20:24:06.718Z,6.91
2023-03-16T20:26:37.233Z,6.96
2023-03-16T20:29:07.394Z,6.94
2023-03-16T20:31:37.994Z,6.95
2023-03-16T20:34:21.390Z,6.90
2023-03-16T20:36:53.171Z,7.07
2023-03-16T20:39:22.588Z,6.96
2023-03-16T20:41:53.107Z,6.89
2023-03-16T20:44:25.559Z,6.86
2023-03-16T20:46:55.166Z,6.87
2023-03-16T20:49:34.104Z,6.85
2023-03-16T20:52:13.539Z,6.85
2023-03-16T20:54:42.758Z,6.85
2023-03-16T20:57:17.820Z,6.88
2023-03-16T20:59:49.321Z,6.81
2023-03-16T21:02:38.525Z,6.84
2023-03-16T21:05:11.029Z,6.87
2023-03-16T21:07:43.173Z,6.90
2023-03-16T21:10:18.183Z,6.83
2023-03-16T21:12:50.215Z,6.82
2023-03-16T21:15:26.569Z,6.82
2023-03-16T21:18:01.463Z,6.83
2023-03-16T21:20:33.416Z,6.89
2023-03-16T21:23:06.415Z,6.86
2023-03-16T21:25:43.216Z,6.82
2023-03-16T21:28:14.558Z,6.81
2023-03-16T21:30:48.155Z,6.77
2023-03-16T21:33:30.779Z,6.79
2023-03-16T21:36:01.277Z,6.82
2023-03-16T21:38:33.774Z,6.76
2023-03-16T21:41:03.912Z,6.76
2023-03-16T21:43:33.299Z,6.77
2023-03-16T21:46:02.699Z,6.89
2023-03-16T21:48:38.895Z,6.81
2023-03-16T21:51:15.030Z,6.73
2023-03-16T21:53:47.858Z,6.76
2023-03-16T21:56:19.774Z,6.76
2023-03-16T21:58:50.102Z,6.75
2023-03-16T22:01:25.657Z,6.74
2023-03-16T22:03:57.472Z,6.61
2023-03-16T22:06:29.513Z,6.71
2023-03-16T22:09:03.328Z,6.71
2023-03-16T22:11:33.610Z,6.71
2023-03-16T22:14:02.954Z,6.71
2023-03-16T22:16:36.399Z,6.72
2023-03-16T22:19:06.738Z,6.68
2023-03-16T22:21:37.578Z,6.75
2023-03-16T22:24:17.217Z,6.69
2023-03-16T22:26:46.610Z,6.65
2023-03-16T22:29:23.355Z,6.77
2023-03-16T22:31:55.283Z,6.69
2023-03-16T22:34:31.667Z,6.59
2023-03-16T22:37:01.819Z,6.55
2023-03-16T22:39:37.650Z,6.59
2023-03-16T22:42:27.003Z,6.68
2023-03-16T22:44:56.354Z,6.69
2023-03-16T22:47:27.621Z,6.67
2023-03-16T22:49:57.237Z,6.67
2023-03-16T22:52:31.925Z,6.64
2023-03-16T22:55:05.894Z,6.62
2023-03-16T22:57:35.434Z,6.70
2023-03-16T23:00:11.295Z,6.67
2023-03-16T23:02:40.626Z,6.64
2023-03-16T23:05:24.606Z,6.74
2023-03-16T23:07:54.377Z,6.67
2023-03-16T23:10:28.446Z,6.58
2023-03-16T23:12:59.427Z,6.63
2023-03-16T23:15:31.486Z,6.73
2023-03-16T23:18:01.116Z,6.69
2023-03-16T23:20:32.682Z,6.73
2023-03-16T23:23:02.258Z,6.59
2023-03-16T23:25:34.171Z,6.64
2023-03-16T23:28:04.862Z,6.63
2023-03-16T23:30:34.908Z,6.58
2023-03-16T23:33:04.322Z,6.57
2023-03-16T23:35:34.236Z,6.52
2023-03-16T23:38:03.500Z,6.49
2023-03-16T23:40:40.298Z,6.55
2023-03-16T23:43:10.691Z,6.48
2023-03-16T23:45:43.832Z,6.41
2023-03-16T23:48:16.853Z,6.53
2023-03-16T23:50:47.649Z,6.36
2023-03-16T23:53:19.058Z,6.42
2023-03-16T23:55:51.532Z,6.39
2023-03-16T23:58:21.223Z,6.43
